sensor_id;sensor_type;location;lat;lon;timestamp;P1;durP1;ratioP1;P2;durP2;ratioP2
15878;SDS011;61999;51.514;14.614;2023-04-24T00:01:41;5.13;;;4.53;;
15878;SDS011;61999;51.514;14.614;2023-04-24T00:04:10;5.20;;;4.17;;
15878;SDS011;61999;51.514;14.614;2023-04-24T00:06:40;4.20;;;3.83;;
15878;SDS011;61999;51.514;14.614;2023-04-24T00:09:08;4.10;;;3.70;;
15878;SDS011;61999;51.514;14.614;2023-04-24T00:11:37;4.20;;;3.90;;
15878;SDS011;61999;51.514;14.614;2023-04-24T00:14:05;4.83;;;4.33;;
15878;SDS011;61999;51.514;14.614;2023-04-24T00:16:33;4.50;;;4.10;;
15878;SDS011;61999;51.514;14.614;2023-04-24T00:19:02;4.30;;;4.00;;
15878;SDS011;61999;51.514;14.614;2023-04-24T00:21:32;6.07;;;5.30;;
15878;SDS011;61999;51.514;14.614;2023-04-24T00:24:00;5.97;;;5.40;;
15878;SDS011;61999;51.514;14.614;2023-04-24T00:26:28;7.27;;;5.90;;
15878;SDS011;61999;51.514;14.614;2023-04-24T00:28:55;5.97;;;5.07;;
15878;SDS011;61999;51.514;14.614;2023-04-24T00:31:23;5.93;;;5.33;;
15878;SDS011;61999;51.514;14.614;2023-04-24T00:33:51;5.33;;;4.93;;
15878;SDS011;61999;51.514;14.614;2023-04-24T00:36:21;4.73;;;4.40;;
15878;SDS011;61999;51.514;14.614;2023-04-24T00:38:49;4.47;;;4.07;;
15878;SDS011;61999;51.514;14.614;2023-04-24T00:41:16;4.57;;;4.17;;
15878;SDS011;61999;51.514;14.614;2023-04-24T00:43:45;5.30;;;4.80;;
15878;SDS011;61999;51.514;14.614;2023-04-24T00:46:13;5.07;;;4.53;;
15878;SDS011;61999;51.514;14.614;2023-04-24T00:48:41;6.63;;;5.57;;
15878;SDS011;61999;51.514;14.614;2023-04-24T00:51:11;5.80;;;5.20;;
15878;SDS011;61999;51.514;14.614;2023-04-24T00:53:40;5.57;;;5.13;;
15878;SDS011;61999;51.514;14.614;2023-04-24T00:56:08;6.03;;;5.53;;
15878;SDS011;61999;51.514;14.614;2023-04-24T00:58:37;5.33;;;4.77;;
15878;SDS011;61999;51.514;14.614;2023-04-24T01:01:06;5.20;;;4.70;;
15878;SDS011;61999;51.514;14.614;2023-04-24T01:03:34;5.90;;;4.60;;
15878;SDS011;61999;51.514;14.614;2023-04-24T01:06:04;4.80;;;4.33;;
15878;SDS011;61999;51.514;14.614;2023-04-24T01:08:33;6.73;;;5.80;;
15878;SDS011;61999;51.514;14.614;2023-04-24T01:11:04;5.30;;;4.87;;
15878;SDS011;61999;51.514;14.614;2023-04-24T01:13:33;6.43;;;5.83;;
15878;SDS011;61999;51.514;14.614;2023-04-24T01:16:02;6.50;;;5.90;;
15878;SDS011;61999;51.514;14.614;2023-04-24T01:18:30;6.90;;;5.90;;
15878;SDS011;61999;51.514;14.614;2023-04-24T01:20:58;6.20;;;5.60;;
15878;SDS011;61999;51.514;14.614;2023-04-24T01:23:32;6.03;;;5.50;;
15878;SDS011;61999;51.514;14.614;2023-04-24T01:26:00;6.17;;;5.57;;
15878;SDS011;61999;51.514;14.614;2023-04-24T01:28:28;5.97;;;5.33;;
15878;SDS011;61999;51.514;14.614;2023-04-24T01:30:56;6.27;;;5.67;;
15878;SDS011;61999;51.514;14.614;2023-04-24T01:33:25;5.70;;;5.20;;
15878;SDS011;61999;51.514;14.614;2023-04-24T01:35:53;5.30;;;4.87;;
15878;SDS011;61999;51.514;14.614;2023-04-24T01:38:21;4.60;;;4.20;;
15878;SDS011;61999;51.514;14.614;2023-04-24T01:40:51;5.00;;;4.50;;
15878;SDS011;61999;51.514;14.614;2023-04-24T01:43:20;4.97;;;4.57;;
15878;SDS011;61999;51.514;14.614;2023-04-24T01:45:49;4.73;;;4.37;;
15878;SDS011;61999;51.514;14.614;2023-04-24T01:48:16;5.00;;;4.60;;
15878;SDS011;61999;51.514;14.614;2023-04-24T01:50:45;4.27;;;3.90;;
15878;SDS011;61999;51.514;14.614;2023-04-24T01:53:13;5.03;;;4.53;;
15878;SDS011;61999;51.514;14.614;2023-04-24T01:55:41;4.53;;;4.13;;
15878;SDS011;61999;51.514;14.614;2023-04-24T01:58:11;4.60;;;4.20;;
15878;SDS011;61999;51.514;14.614;2023-04-24T02:00:39;4.90;;;4.50;;
15878;SDS011;61999;51.514;14.614;2023-04-24T02:03:07;4.63;;;4.23;;
15878;SDS011;61999;51.514;14.614;2023-04-24T02:05:35;4.53;;;4.13;;
15878;SDS011;61999;51.514;14.614;2023-04-24T02:08:03;5.30;;;4.10;;
15878;SDS011;61999;51.514;14.614;2023-04-24T02:10:31;4.77;;;4.37;;
15878;SDS011;61999;51.514;14.614;2023-04-24T02:12:59;5.13;;;4.63;;
15878;SDS011;61999;51.514;14.614;2023-04-24T02:15:28;4.97;;;4.03;;
15878;SDS011;61999;51.514;14.614;2023-04-24T02:17:56;4.27;;;3.97;;
15878;SDS011;61999;51.514;14.614;2023-04-24T02:20:24;4.37;;;4.07;;
15878;SDS011;61999;51.514;14.614;2023-04-24T02:22:52;4.73;;;4.33;;
15878;SDS011;61999;51.514;14.614;2023-04-24T02:25:21;4.37;;;3.97;;
15878;SDS011;61999;51.514;14.614;2023-04-24T02:27:49;4.53;;;3.50;;
15878;SDS011;61999;51.514;14.614;2023-04-24T02:30:17;4.00;;;3.70;;
15878;SDS011;61999;51.514;14.614;2023-04-24T02:32:47;4.30;;;3.90;;
15878;SDS011;61999;51.514;14.614;2023-04-24T02:35:15;4.03;;;3.73;;
15878;SDS011;61999;51.514;14.614;2023-04-24T02:37:43;4.57;;;4.17;;
15878;SDS011;61999;51.514;14.614;2023-04-24T02:40:11;4.50;;;4.10;;
15878;SDS011;61999;51.514;14.614;2023-04-24T02:42:41;4.70;;;4.30;;
15878;SDS011;61999;51.514;14.614;2023-04-24T02:45:09;4.17;;;3.77;;
15878;SDS011;61999;51.514;14.614;2023-04-24T02:47:37;4.33;;;3.97;;
15878;SDS011;61999;51.514;14.614;2023-04-24T02:50:07;4.73;;;4.33;;
15878;SDS011;61999;51.514;14.614;2023-04-24T02:52:36;4.37;;;3.97;;
15878;SDS011;61999;51.514;14.614;2023-04-24T02:55:04;4.97;;;4.47;;
15878;SDS011;61999;51.514;14.614;2023-04-24T02:57:34;6.30;;;5.47;;
15878;SDS011;61999;51.514;14.614;2023-04-24T03:00:02;7.97;;;6.23;;
15878;SDS011;61999;51.514;14.614;2023-04-24T03:02:33;9.60;;;7.67;;
15878;SDS011;61999;51.514;14.614;2023-04-24T03:05:01;11.80;;;9.53;;
15878;SDS011;61999;51.514;14.614;2023-04-24T03:07:31;10.20;;;8.60;;
15878;SDS011;61999;51.514;14.614;2023-04-24T03:09:59;10.03;;;8.27;;
15878;SDS011;61999;51.514;14.614;2023-04-24T03:12:28;9.47;;;8.07;;
15878;SDS011;61999;51.514;14.614;2023-04-24T03:14:55;9.73;;;8.60;;
15878;SDS011;61999;51.514;14.614;2023-04-24T03:17:23;10.47;;;8.20;;
15878;SDS011;61999;51.514;14.614;2023-04-24T03:19:51;8.00;;;6.83;;
15878;SDS011;61999;51.514;14.614;2023-04-24T03:22:19;8.47;;;7.57;;
15878;SDS011;61999;51.514;14.614;2023-04-24T03:24:49;7.50;;;6.47;;
15878;SDS011;61999;51.514;14.614;2023-04-24T03:27:16;7.20;;;6.50;;
15878;SDS011;61999;51.514;14.614;2023-04-24T03:29:44;7.60;;;6.77;;
15878;SDS011;61999;51.514;14.614;2023-04-24T03:32:12;6.70;;;6.00;;
15878;SDS011;61999;51.514;14.614;2023-04-24T03:34:40;6.47;;;5.87;;
15878;SDS011;61999;51.514;14.614;2023-04-24T03:37:08;6.23;;;5.63;;
15878;SDS011;61999;51.514;14.614;2023-04-24T03:39:36;5.43;;;4.93;;
15878;SDS011;61999;51.514;14.614;2023-04-24T03:42:05;7.37;;;4.90;;
15878;SDS011;61999;51.514;14.614;2023-04-24T03:44:34;5.83;;;5.33;;
15878;SDS011;61999;51.514;14.614;2023-04-24T03:47:02;5.77;;;5.27;;
15878;SDS011;61999;51.514;14.614;2023-04-24T03:49:30;6.70;;;6.03;;
15878;SDS011;61999;51.514;14.614;2023-04-24T03:51:58;6.43;;;5.83;;
15878;SDS011;61999;51.514;14.614;2023-04-24T03:54:26;6.13;;;5.53;;
15878;SDS011;61999;51.514;14.614;2023-04-24T03:56:54;6.23;;;5.50;;
15878;SDS011;61999;51.514;14.614;2023-04-24T03:59:23;5.20;;;4.70;;
15878;SDS011;61999;51.514;14.614;2023-04-24T04:01:51;5.90;;;5.20;;
15878;SDS011;61999;51.514;14.614;2023-04-24T04:04:19;4.70;;;4.23;;
15878;SDS011;61999;51.514;14.614;2023-04-24T04:06:47;6.43;;;5.10;;
15878;SDS011;61999;51.514;14.614;2023-04-24T04:09:15;5.80;;;4.80;;
15878;SDS011;61999;51.514;14.614;2023-04-24T04:11:43;6.00;;;5.40;;
15878;SDS011;61999;51.514;14.614;2023-04-24T04:14:11;6.23;;;4.73;;
15878;SDS011;61999;51.514;14.614;2023-04-24T04:16:40;5.20;;;4.70;;
15878;SDS011;61999;51.514;14.614;2023-04-24T04:19:09;9.20;;;5.30;;
15878;SDS011;61999;51.514;14.614;2023-04-24T04:21:37;5.30;;;4.80;;
15878;SDS011;61999;51.514;14.614;2023-04-24T04:24:05;5.53;;;5.03;;
15878;SDS011;61999;51.514;14.614;2023-04-24T04:26:33;4.77;;;4.27;;
15878;SDS011;61999;51.514;14.614;2023-04-24T04:29:03;5.63;;;5.00;;
15878;SDS011;61999;51.514;14.614;2023-04-24T04:31:32;4.53;;;4.13;;
15878;SDS011;61999;51.514;14.614;2023-04-24T04:34:02;5.47;;;4.10;;
15878;SDS011;61999;51.514;14.614;2023-04-24T04:36:30;4.20;;;3.80;;
15878;SDS011;61999;51.514;14.614;2023-04-24T04:38:57;5.80;;;4.63;;
15878;SDS011;61999;51.514;14.614;2023-04-24T04:41:26;9.87;;;4.63;;
15878;SDS011;61999;51.514;14.614;2023-04-24T04:43:54;4.93;;;4.07;;
15878;SDS011;61999;51.514;14.614;2023-04-24T04:46:24;4.83;;;4.30;;
15878;SDS011;61999;51.514;14.614;2023-04-24T04:48:53;4.57;;;4.00;;
15878;SDS011;61999;51.514;14.614;2023-04-24T04:51:24;4.70;;;4.20;;
15878;SDS011;61999;51.514;14.614;2023-04-24T04:53:52;5.73;;;3.83;;
15878;SDS011;61999;51.514;14.614;2023-04-24T04:56:20;4.33;;;3.93;;
15878;SDS011;61999;51.514;14.614;2023-04-24T04:58:48;6.93;;;3.87;;
15878;SDS011;61999;51.514;14.614;2023-04-24T05:01:16;5.13;;;3.60;;
15878;SDS011;61999;51.514;14.614;2023-04-24T05:03:44;3.60;;;3.27;;
15878;SDS011;61999;51.514;14.614;2023-04-24T05:06:12;3.50;;;3.20;;
15878;SDS011;61999;51.514;14.614;2023-04-24T05:08:42;4.40;;;3.93;;
15878;SDS011;61999;51.514;14.614;2023-04-24T05:11:10;5.00;;;3.70;;
15878;SDS011;61999;51.514;14.614;2023-04-24T05:13:38;4.23;;;3.13;;
15878;SDS011;61999;51.514;14.614;2023-04-24T05:16:06;4.40;;;3.07;;
15878;SDS011;61999;51.514;14.614;2023-04-24T05:18:34;4.47;;;3.87;;
15878;SDS011;61999;51.514;14.614;2023-04-24T05:21:02;4.90;;;3.53;;
15878;SDS011;61999;51.514;14.614;2023-04-24T05:23:30;5.73;;;3.10;;
15878;SDS011;61999;51.514;14.614;2023-04-24T05:25:59;4.87;;;3.40;;
15878;SDS011;61999;51.514;14.614;2023-04-24T05:28:28;3.63;;;3.33;;
15878;SDS011;61999;51.514;14.614;2023-04-24T05:30:56;3.30;;;3.00;;
15878;SDS011;61999;51.514;14.614;2023-04-24T05:33:25;5.43;;;2.80;;
15878;SDS011;61999;51.514;14.614;2023-04-24T05:35:53;3.33;;;2.57;;
15878;SDS011;61999;51.514;14.614;2023-04-24T05:38:21;3.30;;;2.90;;
15878;SDS011;61999;51.514;14.614;2023-04-24T05:40:49;4.60;;;3.50;;
15878;SDS011;61999;51.514;14.614;2023-04-24T05:43:18;5.30;;;3.43;;
15878;SDS011;61999;51.514;14.614;2023-04-24T05:45:46;3.03;;;2.67;;
15878;SDS011;61999;51.514;14.614;2023-04-24T05:48:14;4.20;;;2.53;;
15878;SDS011;61999;51.514;14.614;2023-04-24T05:50:42;4.13;;;2.70;;
15878;SDS011;61999;51.514;14.614;2023-04-24T05:53:10;4.20;;;2.50;;
15878;SDS011;61999;51.514;14.614;2023-04-24T05:55:38;2.83;;;2.07;;
15878;SDS011;61999;51.514;14.614;2023-04-24T05:58:07;4.87;;;2.37;;
15878;SDS011;61999;51.514;14.614;2023-04-24T06:00:36;2.40;;;2.20;;
15878;SDS011;61999;51.514;14.614;2023-04-24T06:03:08;5.03;;;2.87;;
15878;SDS011;61999;51.514;14.614;2023-04-24T06:05:36;5.60;;;3.27;;
15878;SDS011;61999;51.514;14.614;2023-04-24T06:08:04;6.03;;;2.67;;
15878;SDS011;61999;51.514;14.614;2023-04-24T06:10:32;4.13;;;2.27;;
15878;SDS011;61999;51.514;14.614;2023-04-24T06:13:00;7.67;;;2.57;;
15878;SDS011;61999;51.514;14.614;2023-04-24T06:15:29;3.50;;;2.20;;
15878;SDS011;61999;51.514;14.614;2023-04-24T06:17:58;3.47;;;2.23;;
15878;SDS011;61999;51.514;14.614;2023-04-24T06:20:26;3.67;;;2.30;;
15878;SDS011;61999;51.514;14.614;2023-04-24T06:22:54;3.53;;;2.17;;
15878;SDS011;61999;51.514;14.614;2023-04-24T06:25:24;3.33;;;2.00;;
15878;SDS011;61999;51.514;14.614;2023-04-24T06:27:53;3.80;;;1.70;;
15878;SDS011;61999;51.514;14.614;2023-04-24T06:30:22;2.30;;;1.70;;
15878;SDS011;61999;51.514;14.614;2023-04-24T06:32:50;3.17;;;2.00;;
15878;SDS011;61999;51.514;14.614;2023-04-24T06:35:19;2.27;;;1.20;;
15878;SDS011;61999;51.514;14.614;2023-04-24T06:37:47;4.03;;;2.10;;
15878;SDS011;61999;51.514;14.614;2023-04-24T06:40:15;1.10;;;1.00;;
15878;SDS011;61999;51.514;14.614;2023-04-24T06:42:44;2.60;;;1.30;;
15878;SDS011;61999;51.514;14.614;2023-04-24T06:45:12;3.63;;;1.50;;
15878;SDS011;61999;51.514;14.614;2023-04-24T06:47:40;1.67;;;0.90;;
15878;SDS011;61999;51.514;14.614;2023-04-24T06:50:09;3.50;;;1.03;;
15878;SDS011;61999;51.514;14.614;2023-04-24T06:52:39;0.90;;;0.90;;
15878;SDS011;61999;51.514;14.614;2023-04-24T06:55:08;1.00;;;0.90;;
15878;SDS011;61999;51.514;14.614;2023-04-24T06:57:37;4.20;;;1.00;;
15878;SDS011;61999;51.514;14.614;2023-04-24T07:00:05;0.80;;;0.70;;
15878;SDS011;61999;51.514;14.614;2023-04-24T07:02:35;1.13;;;1.03;;
15878;SDS011;61999;51.514;14.614;2023-04-24T07:05:03;1.90;;;1.00;;
15878;SDS011;61999;51.514;14.614;2023-04-24T07:07:33;0.80;;;0.80;;
15878;SDS011;61999;51.514;14.614;2023-04-24T07:10:05;2.50;;;1.10;;
15878;SDS011;61999;51.514;14.614;2023-04-24T07:12:34;2.20;;;0.90;;
15878;SDS011;61999;51.514;14.614;2023-04-24T07:15:04;2.13;;;1.10;;
15878;SDS011;61999;51.514;14.614;2023-04-24T07:17:34;1.57;;;1.00;;
15878;SDS011;61999;51.514;14.614;2023-04-24T07:20:02;2.20;;;1.13;;
15878;SDS011;61999;51.514;14.614;2023-04-24T07:22:31;0.83;;;0.83;;
15878;SDS011;61999;51.514;14.614;2023-04-24T07:24:59;2.03;;;0.90;;
15878;SDS011;61999;51.514;14.614;2023-04-24T07:27:29;1.67;;;0.87;;
15878;SDS011;61999;51.514;14.614;2023-04-24T07:29:57;1.50;;;0.70;;
15878;SDS011;61999;51.514;14.614;2023-04-24T07:32:25;1.00;;;0.83;;
15878;SDS011;61999;51.514;14.614;2023-04-24T07:34:53;0.87;;;0.70;;
15878;SDS011;61999;51.514;14.614;2023-04-24T07:37:21;0.60;;;0.60;;
15878;SDS011;61999;51.514;14.614;2023-04-24T07:39:50;0.90;;;0.90;;
15878;SDS011;61999;51.514;14.614;2023-04-24T07:42:18;0.70;;;0.70;;
15878;SDS011;61999;51.514;14.614;2023-04-24T07:44:47;0.97;;;0.63;;
15878;SDS011;61999;51.514;14.614;2023-04-24T07:47:15;0.70;;;0.70;;
15878;SDS011;61999;51.514;14.614;2023-04-24T07:49:43;1.70;;;0.90;;
15878;SDS011;61999;51.514;14.614;2023-04-24T07:52:11;1.70;;;0.70;;
15878;SDS011;61999;51.514;14.614;2023-04-24T07:54:39;1.47;;;0.73;;
15878;SDS011;61999;51.514;14.614;2023-04-24T07:57:07;1.53;;;0.80;;
15878;SDS011;61999;51.514;14.614;2023-04-24T07:59:35;1.93;;;0.83;;
15878;SDS011;61999;51.514;14.614;2023-04-24T08:02:04;1.80;;;0.90;;
15878;SDS011;61999;51.514;14.614;2023-04-24T08:04:33;0.73;;;0.70;;
15878;SDS011;61999;51.514;14.614;2023-04-24T08:07:01;1.10;;;0.90;;
15878;SDS011;61999;51.514;14.614;2023-04-24T08:09:29;1.30;;;0.77;;
15878;SDS011;61999;51.514;14.614;2023-04-24T08:11:57;1.30;;;0.90;;
15878;SDS011;61999;51.514;14.614;2023-04-24T08:14:25;0.70;;;0.70;;
15878;SDS011;61999;51.514;14.614;2023-04-24T08:16:53;1.20;;;0.70;;
15878;SDS011;61999;51.514;14.614;2023-04-24T08:19:24;0.70;;;0.70;;
15878;SDS011;61999;51.514;14.614;2023-04-24T08:21:52;0.67;;;0.67;;
15878;SDS011;61999;51.514;14.614;2023-04-24T08:24:20;0.87;;;0.60;;
15878;SDS011;61999;51.514;14.614;2023-04-24T08:26:49;1.03;;;0.77;;
15878;SDS011;61999;51.514;14.614;2023-04-24T08:29:17;0.80;;;0.70;;
15878;SDS011;61999;51.514;14.614;2023-04-24T08:31:45;0.70;;;0.70;;
15878;SDS011;61999;51.514;14.614;2023-04-24T08:34:13;1.20;;;0.90;;
15878;SDS011;61999;51.514;14.614;2023-04-24T08:36:43;0.93;;;0.80;;
15878;SDS011;61999;51.514;14.614;2023-04-24T08:39:12;1.23;;;1.13;;
15878;SDS011;61999;51.514;14.614;2023-04-24T08:41:41;1.03;;;0.93;;
15878;SDS011;61999;51.514;14.614;2023-04-24T08:44:13;1.40;;;1.10;;
15878;SDS011;61999;51.514;14.614;2023-04-24T08:46:42;3.67;;;1.00;;
15878;SDS011;61999;51.514;14.614;2023-04-24T08:49:46;0.80;;;0.80;;
15878;SDS011;61999;51.514;14.614;2023-04-24T08:52:18;1.40;;;1.00;;
15878;SDS011;61999;51.514;14.614;2023-04-24T08:54:48;0.80;;;0.70;;
15878;SDS011;61999;51.514;14.614;2023-04-24T08:57:17;0.80;;;0.80;;
15878;SDS011;61999;51.514;14.614;2023-04-24T08:59:45;1.60;;;0.80;;
15878;SDS011;61999;51.514;14.614;2023-04-24T09:02:14;1.20;;;1.10;;
15878;SDS011;61999;51.514;14.614;2023-04-24T09:04:45;1.10;;;0.80;;
15878;SDS011;61999;51.514;14.614;2023-04-24T09:07:14;1.57;;;0.97;;
15878;SDS011;61999;51.514;14.614;2023-04-24T09:09:45;1.80;;;1.03;;
15878;SDS011;61999;51.514;14.614;2023-04-24T09:12:14;1.37;;;0.90;;
15878;SDS011;61999;51.514;14.614;2023-04-24T09:14:42;1.70;;;1.20;;
15878;SDS011;61999;51.514;14.614;2023-04-24T09:17:11;1.77;;;1.00;;
15878;SDS011;61999;51.514;14.614;2023-04-24T09:19:39;1.00;;;0.90;;
15878;SDS011;61999;51.514;14.614;2023-04-24T09:22:08;0.90;;;0.70;;
15878;SDS011;61999;51.514;14.614;2023-04-24T09:24:37;2.33;;;0.90;;
15878;SDS011;61999;51.514;14.614;2023-04-24T09:27:07;0.70;;;0.70;;
15878;SDS011;61999;51.514;14.614;2023-04-24T09:29:39;1.87;;;1.20;;
15878;SDS011;61999;51.514;14.614;2023-04-24T09:32:21;1.77;;;1.33;;
15878;SDS011;61999;51.514;14.614;2023-04-24T09:35:04;1.30;;;1.20;;
15878;SDS011;61999;51.514;14.614;2023-04-24T09:37:35;0.80;;;0.80;;
15878;SDS011;61999;51.514;14.614;2023-04-24T09:40:08;5.70;;;0.90;;
15878;SDS011;61999;51.514;14.614;2023-04-24T09:42:51;2.10;;;0.90;;
15878;SDS011;61999;51.514;14.614;2023-04-24T09:45:21;0.93;;;0.90;;
15878;SDS011;61999;51.514;14.614;2023-04-24T09:47:54;1.70;;;0.90;;
15878;SDS011;61999;51.514;14.614;2023-04-24T09:50:23;1.37;;;0.80;;
15878;SDS011;61999;51.514;14.614;2023-04-24T09:52:56;0.90;;;0.90;;
15878;SDS011;61999;51.514;14.614;2023-04-24T09:55:26;1.47;;;1.33;;
15878;SDS011;61999;51.514;14.614;2023-04-24T09:57:56;1.60;;;1.40;;
15878;SDS011;61999;51.514;14.614;2023-04-24T10:00:27;1.93;;;1.20;;
15878;SDS011;61999;51.514;14.614;2023-04-24T10:02:57;1.17;;;1.07;;
15878;SDS011;61999;51.514;14.614;2023-04-24T10:05:27;1.70;;;1.07;;
15878;SDS011;61999;51.514;14.614;2023-04-24T10:08:02;0.70;;;0.70;;
15878;SDS011;61999;51.514;14.614;2023-04-24T10:10:32;1.23;;;1.03;;
15878;SDS011;61999;51.514;14.614;2023-04-24T10:13:05;1.20;;;1.00;;
15878;SDS011;61999;51.514;14.614;2023-04-24T10:15:36;1.50;;;1.37;;
15878;SDS011;61999;51.514;14.614;2023-04-24T10:18:04;1.83;;;1.20;;
15878;SDS011;61999;51.514;14.614;2023-04-24T10:20:35;2.63;;;1.23;;
15878;SDS011;61999;51.514;14.614;2023-04-24T10:23:05;0.97;;;0.70;;
15878;SDS011;61999;51.514;14.614;2023-04-24T10:25:34;0.90;;;0.90;;
15878;SDS011;61999;51.514;14.614;2023-04-24T10:28:03;3.20;;;0.97;;
15878;SDS011;61999;51.514;14.614;2023-04-24T10:30:34;1.00;;;0.80;;
15878;SDS011;61999;51.514;14.614;2023-04-24T10:33:03;2.20;;;0.93;;
15878;SDS011;61999;51.514;14.614;2023-04-24T10:35:34;1.77;;;0.83;;
15878;SDS011;61999;51.514;14.614;2023-04-24T10:38:07;0.80;;;0.60;;
15878;SDS011;61999;51.514;14.614;2023-04-24T10:40:40;0.80;;;0.63;;
15878;SDS011;61999;51.514;14.614;2023-04-24T10:43:13;1.17;;;0.77;;
15878;SDS011;61999;51.514;14.614;2023-04-24T10:45:59;1.07;;;0.83;;
15878;SDS011;61999;51.514;14.614;2023-04-24T10:48:29;1.80;;;0.73;;
15878;SDS011;61999;51.514;14.614;2023-04-24T10:50:58;2.83;;;2.27;;
15878;SDS011;61999;51.514;14.614;2023-04-24T10:53:27;4.17;;;2.50;;
15878;SDS011;61999;51.514;14.614;2023-04-24T10:55:57;3.13;;;1.93;;
15878;SDS011;61999;51.514;14.614;2023-04-24T10:58:38;2.00;;;1.20;;
15878;SDS011;61999;51.514;14.614;2023-04-24T11:01:22;1.93;;;0.90;;
15878;SDS011;61999;51.514;14.614;2023-04-24T11:03:54;1.30;;;1.20;;
15878;SDS011;61999;51.514;14.614;2023-04-24T11:06:30;2.30;;;2.07;;
15878;SDS011;61999;51.514;14.614;2023-04-24T11:09:02;5.10;;;4.60;;
15878;SDS011;61999;51.514;14.614;2023-04-24T11:11:33;10.07;;;6.67;;
15878;SDS011;61999;51.514;14.614;2023-04-24T11:14:05;3.17;;;1.43;;
15878;SDS011;61999;51.514;14.614;2023-04-24T11:16:38;1.10;;;1.00;;
15878;SDS011;61999;51.514;14.614;2023-04-24T11:19:18;3.70;;;1.73;;
15878;SDS011;61999;51.514;14.614;2023-04-24T11:21:54;2.47;;;1.17;;
15878;SDS011;61999;51.514;14.614;2023-04-24T11:24:28;2.03;;;1.20;;
15878;SDS011;61999;51.514;14.614;2023-04-24T11:26:59;3.80;;;1.10;;
15878;SDS011;61999;51.514;14.614;2023-04-24T11:29:45;2.10;;;0.90;;
15878;SDS011;61999;51.514;14.614;2023-04-24T11:32:23;1.30;;;1.00;;
15878;SDS011;61999;51.514;14.614;2023-04-24T11:34:54;3.53;;;1.37;;
15878;SDS011;61999;51.514;14.614;2023-04-24T11:37:24;0.87;;;0.87;;
15878;SDS011;61999;51.514;14.614;2023-04-24T11:40:00;2.70;;;1.40;;
15878;SDS011;61999;51.514;14.614;2023-04-24T11:42:28;1.93;;;1.10;;
15878;SDS011;61999;51.514;14.614;2023-04-24T11:45:06;2.27;;;1.30;;
15878;SDS011;61999;51.514;14.614;2023-04-24T11:47:36;2.20;;;1.67;;
15878;SDS011;61999;51.514;14.614;2023-04-24T11:50:06;1.73;;;1.57;;
15878;SDS011;61999;51.514;14.614;2023-04-24T11:52:38;2.27;;;1.60;;
15878;SDS011;61999;51.514;14.614;2023-04-24T11:55:12;2.97;;;1.33;;
15878;SDS011;61999;51.514;14.614;2023-04-24T11:57:53;0.70;;;0.70;;
15878;SDS011;61999;51.514;14.614;2023-04-24T12:00:26;1.90;;;1.17;;
15878;SDS011;61999;51.514;14.614;2023-04-24T12:03:03;2.20;;;1.00;;
15878;SDS011;61999;51.514;14.614;2023-04-24T12:05:33;1.77;;;1.17;;
15878;SDS011;61999;51.514;14.614;2023-04-24T12:08:02;2.10;;;1.00;;
15878;SDS011;61999;51.514;14.614;2023-04-24T12:10:31;2.53;;;0.97;;
15878;SDS011;61999;51.514;14.614;2023-04-24T12:13:00;1.63;;;1.03;;
15878;SDS011;61999;51.514;14.614;2023-04-24T12:15:30;1.43;;;1.10;;
15878;SDS011;61999;51.514;14.614;2023-04-24T12:17:58;1.50;;;1.20;;
15878;SDS011;61999;51.514;14.614;2023-04-24T12:20:27;1.97;;;1.03;;
15878;SDS011;61999;51.514;14.614;2023-04-24T12:22:57;1.57;;;1.17;;
15878;SDS011;61999;51.514;14.614;2023-04-24T12:25:27;0.97;;;0.83;;
15878;SDS011;61999;51.514;14.614;2023-04-24T12:28:08;2.17;;;1.27;;
15878;SDS011;61999;51.514;14.614;2023-04-24T12:30:41;3.10;;;1.30;;
15878;SDS011;61999;51.514;14.614;2023-04-24T12:33:11;1.10;;;1.00;;
15878;SDS011;61999;51.514;14.614;2023-04-24T12:35:39;1.70;;;1.30;;
15878;SDS011;61999;51.514;14.614;2023-04-24T12:38:08;1.33;;;1.23;;
15878;SDS011;61999;51.514;14.614;2023-04-24T12:40:39;3.00;;;1.37;;
15878;SDS011;61999;51.514;14.614;2023-04-24T12:43:13;1.47;;;1.03;;
15878;SDS011;61999;51.514;14.614;2023-04-24T12:45:43;1.77;;;1.07;;
15878;SDS011;61999;51.514;14.614;2023-04-24T12:48:12;2.13;;;1.43;;
15878;SDS011;61999;51.514;14.614;2023-04-24T12:50:41;2.33;;;1.30;;
15878;SDS011;61999;51.514;14.614;2023-04-24T12:53:11;1.77;;;1.33;;
15878;SDS011;61999;51.514;14.614;2023-04-24T12:55:39;2.37;;;1.47;;
15878;SDS011;61999;51.514;14.614;2023-04-24T12:58:07;1.30;;;1.20;;
15878;SDS011;61999;51.514;14.614;2023-04-24T13:00:35;2.27;;;1.30;;
15878;SDS011;61999;51.514;14.614;2023-04-24T13:03:05;1.37;;;1.20;;
15878;SDS011;61999;51.514;14.614;2023-04-24T13:05:33;1.70;;;1.40;;
15878;SDS011;61999;51.514;14.614;2023-04-24T13:08:01;1.27;;;1.10;;
15878;SDS011;61999;51.514;14.614;2023-04-24T13:10:29;2.90;;;1.37;;
15878;SDS011;61999;51.514;14.614;2023-04-24T13:12:57;1.87;;;1.17;;
15878;SDS011;61999;51.514;14.614;2023-04-24T13:15:25;3.33;;;1.30;;
15878;SDS011;61999;51.514;14.614;2023-04-24T13:17:53;1.07;;;0.73;;
15878;SDS011;61999;51.514;14.614;2023-04-24T13:20:22;1.13;;;0.60;;
15878;SDS011;61999;51.514;14.614;2023-04-24T13:22:50;0.60;;;0.60;;
15878;SDS011;61999;51.514;14.614;2023-04-24T13:25:18;1.03;;;0.60;;
15878;SDS011;61999;51.514;14.614;2023-04-24T13:27:48;1.60;;;0.90;;
15878;SDS011;61999;51.514;14.614;2023-04-24T13:30:16;2.73;;;0.70;;
15878;SDS011;61999;51.514;14.614;2023-04-24T13:32:45;1.70;;;1.00;;
15878;SDS011;61999;51.514;14.614;2023-04-24T13:35:13;3.20;;;0.70;;
15878;SDS011;61999;51.514;14.614;2023-04-24T13:37:42;1.37;;;0.90;;
15878;SDS011;61999;51.514;14.614;2023-04-24T13:40:10;0.80;;;0.80;;
15878;SDS011;61999;51.514;14.614;2023-04-24T13:42:39;0.67;;;0.67;;
15878;SDS011;61999;51.514;14.614;2023-04-24T13:45:08;0.40;;;0.40;;
15878;SDS011;61999;51.514;14.614;2023-04-24T13:47:42;0.87;;;0.80;;
15878;SDS011;61999;51.514;14.614;2023-04-24T13:50:10;0.80;;;0.63;;
15878;SDS011;61999;51.514;14.614;2023-04-24T13:52:38;1.27;;;0.60;;
15878;SDS011;61999;51.514;14.614;2023-04-24T13:55:08;1.60;;;0.70;;
15878;SDS011;61999;51.514;14.614;2023-04-24T13:57:36;1.83;;;0.90;;
15878;SDS011;61999;51.514;14.614;2023-04-24T14:00:05;0.77;;;0.70;;
15878;SDS011;61999;51.514;14.614;2023-04-24T14:02:36;0.97;;;0.70;;
15878;SDS011;61999;51.514;14.614;2023-04-24T14:05:04;0.60;;;0.60;;
15878;SDS011;61999;51.514;14.614;2023-04-24T14:07:33;0.60;;;0.60;;
15878;SDS011;61999;51.514;14.614;2023-04-24T14:10:01;0.70;;;0.70;;
15878;SDS011;61999;51.514;14.614;2023-04-24T14:12:31;0.50;;;0.50;;
15878;SDS011;61999;51.514;14.614;2023-04-24T14:14:59;0.60;;;0.50;;
15878;SDS011;61999;51.514;14.614;2023-04-24T14:17:27;0.63;;;0.57;;
15878;SDS011;61999;51.514;14.614;2023-04-24T14:19:55;0.43;;;0.43;;
15878;SDS011;61999;51.514;14.614;2023-04-24T14:22:26;0.73;;;0.60;;
15878;SDS011;61999;51.514;14.614;2023-04-24T14:24:54;0.60;;;0.60;;
15878;SDS011;61999;51.514;14.614;2023-04-24T14:27:22;2.07;;;0.80;;
15878;SDS011;61999;51.514;14.614;2023-04-24T14:29:51;0.97;;;0.80;;
15878;SDS011;61999;51.514;14.614;2023-04-24T14:32:19;0.63;;;0.63;;
15878;SDS011;61999;51.514;14.614;2023-04-24T14:34:47;1.60;;;0.80;;
15878;SDS011;61999;51.514;14.614;2023-04-24T14:37:15;1.50;;;0.80;;
15878;SDS011;61999;51.514;14.614;2023-04-24T14:39:43;1.47;;;0.83;;
15878;SDS011;61999;51.514;14.614;2023-04-24T14:42:15;1.40;;;0.90;;
15878;SDS011;61999;51.514;14.614;2023-04-24T14:44:44;1.40;;;0.83;;
15878;SDS011;61999;51.514;14.614;2023-04-24T14:47:13;1.30;;;0.93;;